• Join FlightAware (Why Join?)
  • Login
  • US Flag 
Rudolph Flight #1: Scheduled 
08:36PM EST


 

Airport Tracker/Info


-or-


 

Live Flight TrackerFlight Track Log ✈ DAL781 ✈ 22-Apr-2013 ✈ KATL - SVMI / CCS

Flight Track Log - Related Links

Times and Time Zones

All times are in EDT time to prevent confusion due to time zone crossing. See the DAL781 flight status page for this flight to view local times or setup timezone preferences in your user account.

Time Position Orientation Groundspeed Altitude Reporting Facility
EDT Latitude Longitude Course Direction KTS MPH feet Rate Location/Type
05:41PM 33.6186 -84.3381 145° Southeast 461 531 3,600  Level Atlanta Center
05:42PM 33.5792 -84.2756 127° Southeast 301 346 6,100 2,820 Climbing Atlanta Center
05:43PM 33.3551 -84.2383 140° Southeast  Level FlightAware Approximate
05:43PM 33.5333 -84.2833 188° South 274 315 7,900  Level Atlanta TRACON
05:44PM 33.2561 -84.1391 140° Southeast  Level FlightAware Approximate
05:45PM 33.1569 -84.0401 140° Southeast  Level FlightAware Approximate
05:45PM 33.3369 -84.2253 166° South 311 358 12,800  Level Atlanta Center
05:46PM 33.0607 -83.9477 145° Southeast  Level FlightAware Approximate
05:46PM 33.2597 -84.1531 142° Southeast 358 412 14,500  Level Atlanta Center
05:47PM 32.9549 -83.8593 145° Southeast  Level FlightAware Approximate
05:47PM 33.1722 -84.0661 140° Southeast 383 441 16,900  Level Atlanta Center
05:48PM 33.0844 -83.9794 140° Southeast 408 470 18,600 1,740 Climbing Atlanta Center
05:49PM 32.9883 -83.8953 144° Southeast 414 476 20,400 1,740 Climbing Atlanta Center
05:50PM 32.8861 -83.8136 146° Southeast 433 498 22,100 1,620 Climbing Atlanta Center
05:51PM 32.7814 -83.7275 145° Southeast 453 521 23,700 1,560 Climbing Atlanta Center
05:52PM 32.6769 -83.6367 144° Southeast 458 527 25,300 1,440 Climbing Atlanta Center
05:53PM 32.5764 -83.5383 140° Southeast 468 539 26,600 1,200 Climbing Atlanta Center
05:54PM 32.4756 -83.4331 139° Southeast 473 544 27,800 1,320 Climbing Atlanta Center
05:55PM 32.3331 -83.2883 139° Southeast 486 559 29,600 1,320 Climbing Jacksonville Center
05:56PM 32.2267 -83.1847 141° Southeast 486 559 30,800 1,260 Climbing Jacksonville Center
05:57PM 32.1183 -83.0789 140° Southeast 496 571 32,200 1,260 Climbing Jacksonville Center
05:58PM 32.0267 -82.9858 139° Southeast 496 571 33,400 900 Climbing Jacksonville Center
05:59PM 31.9222 -82.8853 141° Southeast 491 565 34,000 240 Climbing Jacksonville Center
06:00PM 31.8242 -82.7900 140° Southeast 486 559 34,000  Level Jacksonville Center
06:01PM 31.7236 -82.6897 140° Southeast 475 547 34,000  Level Jacksonville Center
06:02PM 31.6233 -82.5925 140° Southeast 475 547 34,000  Level Jacksonville Center
06:03PM 31.5208 -82.4953 141° Southeast 475 547 34,000  Level Jacksonville Center
06:04PM 31.4161 -82.4056 144° Southeast 468 539 34,000  Level Jacksonville Center
06:05PM 31.3092 -82.3211 146° Southeast 458 527 34,000  Level Jacksonville Center
06:06PM 31.2044 -82.2344 145° Southeast 458 527 34,000  Level Jacksonville Center
06:07PM 31.0933 -82.1406 144° Southeast 458 527 34,000  Level Jacksonville Center
06:08PM 30.9883 -82.0517 144° Southeast 463 533 34,000  Level Jacksonville Center
06:09PM 30.8833 -81.9631 144° Southeast 463 533 34,000  Level Jacksonville Center
06:10PM 30.7781 -81.8747 144° Southeast 469 540 34,000  Level Jacksonville Center
06:11PM 30.6731 -81.7864 144° Southeast 469 540 34,000  Level Jacksonville Center
06:12PM 30.5658 -81.6958 144° Southeast 474 545 34,000  Level Jacksonville Center
06:13PM 30.4564 -81.6058 145° Southeast 474 545 34,000  Level Jacksonville Center
06:14PM 30.3489 -81.5206 146° Southeast 474 545 34,000  Level Jacksonville Center
06:15PM 30.2294 -81.4669 159° South 467 537 34,000  Level Jacksonville Center
06:16PM 30.1078 -81.4208 162° South 461 531 34,000  Level Jacksonville Center
06:17PM 29.9839 -81.3722 161° South 461 531 34,000  Level Jacksonville Center
06:18PM 29.8622 -81.3261 162° South 461 531 34,000  Level Jacksonville Center
06:19PM 29.7386 -81.2803 162° South 461 531 34,000  Level Jacksonville Center
06:20PM 29.6169 -81.2322 161° South 461 531 34,000  Level Jacksonville Center
06:21PM 29.4911 -81.1842 162° South 461 531 34,000  Level Jacksonville Center
06:22PM 29.3756 -81.1314 158° South 467 537 34,000  Level Jacksonville Center
06:23PM 29.2517 -81.0861 162° South 462 532 34,000  Level Jacksonville Center
06:24PM 29.1278 -81.0361 161° South 467 537 34,000  Level Jacksonville Center
06:26PM 28.9139 -80.9606 163° South 467 537 34,000  Level Miami Center
06:27PM 28.8044 -80.9164 161° South 472 543 34,000  Level Miami Center
06:28PM 28.6706 -80.8642 161° South 472 543 34,000  Level Miami Center
06:29PM 28.5608 -80.8247 162° South 467 537 34,000  Level Miami Center
06:30PM 28.4411 -80.7781 161° South 467 537 34,000  Level Miami Center
06:31PM 28.3214 -80.7314 161° South 461 531 34,000  Level Miami Center
06:32PM 28.2083 -80.6664 153° Southeast 456 525 34,000  Level Miami Center
06:33PM 28.1131 -80.5642 137° Southeast 461 531 34,000 420 Level Miami Center
06:34PM 28.0156 -80.4575 136° Southeast 478 550 34,900 900 Climbing Miami Center
06:35PM 27.9200 -80.3511 135° Southeast 489 563 35,800 780 Climbing Miami Center
06:36PM 27.8181 -80.2494 139° Southeast 489 563 36,500 600 Climbing Miami Center
06:37PM 27.7139 -80.1478 139° Southeast 494 568 37,100 540 Climbing Miami Center
06:38PM 27.6119 -80.0464 139° Southeast 494 568 37,600 420 Climbing Miami Center
06:39PM 27.5056 -79.9428 139° Southeast 494 568 38,000 180 Climbing Miami Center
06:40PM 27.4075 -79.8419 138° Southeast 486 559 38,000  Level Miami Center
06:41PM 27.2908 -79.7292 139° Southeast 486 559 38,000  Level Miami Center
06:42PM 27.1883 -79.6239 138° Southeast 492 566 38,000  Level Miami Center
06:43PM 27.0817 -79.5233 140° Southeast 499 574 38,000  Level Miami Center
06:44PM 26.9872 -79.4303 139° Southeast 499 574 38,000 60 Level Miami Center
06:45PM 26.8742 -79.3206 139° Southeast 492 566 38,200 300 Climbing Miami Center
06:46PM 26.7797 -79.2233 137° Southeast 498 573 38,600 360 Climbing Miami Center
06:47PM 26.6769 -79.1236 139° Southeast 498 573 39,000 180 Climbing Miami Center
06:48PM 26.5719 -79.0217 139° Southeast 498 573 39,000  Level Miami Center
06:49PM 26.4647 -78.9222 140° Southeast 498 573 39,000  Level Miami Center
06:50PM 26.3597 -78.8206 139° Southeast 498 573 39,000  Level Miami Center
06:51PM 26.2544 -78.7147 138° Southeast 498 573 39,000  Level Miami Center
06:52PM 26.1306 -78.6061 142° Southeast 508 585 39,000  Level Miami Center
06:53PM 26.0250 -78.5006 138° Southeast 508 585 39,000  Level Miami Center
06:54PM 25.9156 -78.3975 140° Southeast 513 590 39,000  Level Miami Center
06:55PM 25.8100 -78.2969 139° Southeast 513 590 39,000  Level Miami Center
06:56PM 25.7044 -78.1942 139° Southeast 513 590 39,000  Level Miami Center
06:57PM 25.6006 -78.0961 140° Southeast 503 579 39,000  Level Miami Center
06:58PM 25.4928 -77.9939 139° Southeast 503 579 39,000  Level Miami Center
06:59PM 25.3869 -77.8961 140° Southeast 503 579 39,000  Level Miami Center
07:00PM 25.2811 -77.7942 139° Southeast 503 579 39,000  Level Miami Center
07:01PM 25.1750 -77.6992 141° Southeast 503 579 39,000  Level Miami Center
07:02PM 25.0878 -77.6183 140° Southeast 503 579 39,000  Level Miami Center
07:03PM 24.9567 -77.4961 140° Southeast 508 585 39,000  Level Miami Center
07:04PM 24.8464 -77.3925 140° Southeast 516 594 39,000  Level Miami Center
07:05PM 24.7442 -77.2958 139° Southeast 506 582 39,000  Level Miami Center
07:06PM 24.6378 -77.1972 140° Southeast 506 582 39,000  Level Miami Center
07:07PM 24.5336 -77.0964 139° Southeast 506 582 39,000  Level Miami Center
07:08PM 24.4269 -77.0025 141° Southeast 506 582 39,000  Level Miami Center
07:09PM 24.3225 -76.9044 139° Southeast 506 582 39,000  Level Miami Center
07:10PM 24.2139 -76.8064 141° Southeast 506 582 39,000  Level Miami Center
07:11PM 24.1114 -76.7131 140° Southeast 501 577 39,000  Level Miami Center
07:12PM 24.0047 -76.6156 140° Southeast 495 570 39,000  Level Miami Center
07:13PM 23.9000 -76.5181 140° Southeast 495 570 39,000  Level Miami Center
07:14PM 23.7933 -76.4206 140° Southeast 495 570 39,000  Level Miami Center
07:15PM 23.6864 -76.3256 141° Southeast 495 570 39,000  Level Miami Center
07:16PM 23.5794 -76.2286 140° Southeast 495 570 39,000  Level Miami Center
07:17PM 23.4703 -76.1317 141° Southeast 495 570 39,000  Level Miami Center
07:18PM 23.3611 -76.0328 140° Southeast 495 570 39,000  Level Miami Center
07:19PM 23.2497 -75.9342 141° Southeast 502 578 39,000  Level Miami Center
07:20PM 23.1383 -75.8331 140° Southeast 512 589 39,000  Level Miami Center
07:21PM 23.0311 -75.7347 140° Southeast 512 589 39,000  Level Miami Center
07:22PM 22.9217 -75.6386 141° Southeast 512 589 39,000  Level Miami Center
07:23PM 22.8122 -75.5406 140° Southeast 512 589 39,000  Level Miami Center
07:24PM 22.7028 -75.4447 141° Southeast 512 589 39,000  Level Miami Center
07:25PM 22.5931 -75.3472 141° Southeast 507 583 39,000  Level Miami Center
07:26PM 22.4856 -75.2517 141° Southeast 507 583 39,000  Level Miami Center
07:27PM 22.3758 -75.1564 141° Southeast 507 583 39,000  Level Miami Center
07:28PM 22.2683 -75.0614 141° Southeast 507 583 39,000  Level Miami Center
07:29PM 22.1606 -74.9642 140° Southeast 507 583 39,000  Level Miami Center
07:30PM 22.0528 -74.8739 142° Southeast 502 578 39,000  Level Miami Center
07:31PM 21.9431 -74.7769 141° Southeast 502 578 39,000  Level Miami Center
07:32PM 21.8350 -74.6825 141° Southeast 502 578 39,000  Level Miami Center
07:33PM 21.7272 -74.5881 141° Southeast 502 578 39,000  Level Miami Center
07:34PM 21.6297 -74.4983 139° Southeast 508 585 39,000  Level Miami Center
07:35PM 21.5219 -74.4042 141° Southeast 508 585 39,000  Level Miami Center
07:36PM 21.4139 -74.3103 141° Southeast 503 579 39,000  Level Miami Center
07:37PM 21.3036 -74.2167 142° Southeast 503 579 39,000  Level Miami Center
07:38PM 21.1933 -74.1186 140° Southeast 508 585 39,000  Level Miami Center
07:39PM 21.0853 -74.0275 142° Southeast 508 585 39,000  Level Miami Center
07:40PM 20.9772 -73.9319 140° Southeast 501 577 39,000  Level Miami Center
07:41PM 20.8603 -73.8322 141° Southeast 501 577 39,000  Level Miami Center
07:42PM 20.7500 -73.7394 142° Southeast 506 582 39,000  Level Miami Center
07:43PM 20.6394 -73.6422 141° Southeast 506 582 39,000  Level Miami Center
07:44PM 20.5333 -73.5517 141° Southeast 501 577 39,000  Level Miami Center
07:45PM 20.4228 -73.4592 142° Southeast 506 582 39,000  Level Miami Center
07:46PM 20.3144 -73.3644 141° Southeast 506 582 39,000  Level Miami Center
07:47PM 20.2036 -73.2700 141° Southeast 506 582 39,000  Level Miami Center
07:48PM 20.0933 -73.1892 145° Southeast 506 582 39,000  Level Miami Center
07:50PM 19.9422 -73.0979 153° Southeast  Level FlightAware Approximate
07:57PM 19.1401 -72.6573 153° Southeast  Level FlightAware Approximate
07:58PM 19.0254 -72.5947 153° Southeast  Level FlightAware Approximate
07:59PM 18.9107 -72.5322 153° Southeast  Level FlightAware Approximate
08:00PM 18.7960 -72.4698 153° Southeast  Level FlightAware Approximate
08:01PM 18.6812 -72.4075 153° Southeast  Level FlightAware Approximate
08:02PM 18.5665 -72.3452 153° Southeast  Level FlightAware Approximate
08:03PM 18.4517 -72.2831 153° Southeast  Level FlightAware Approximate
08:04PM 18.3369 -72.2210 153° Southeast  Level FlightAware Approximate
08:05PM 18.2221 -72.1590 153° Southeast  Level FlightAware Approximate
08:06PM 18.1072 -72.0971 153° Southeast  Level FlightAware Approximate
08:07PM 17.9924 -72.0353 153° Southeast  Level FlightAware Approximate
08:08PM 17.8775 -71.9735 153° Southeast  Level FlightAware Approximate
08:09PM 17.7626 -71.9118 153° Southeast  Level FlightAware Approximate
08:10PM 17.6477 -71.8503 153° Southeast  Level FlightAware Approximate
08:11PM 17.5327 -71.7887 153° Southeast  Level FlightAware Approximate
08:12PM 17.4178 -71.7273 153° Southeast  Level FlightAware Approximate
08:13PM 17.3030 -71.6656 153° Southeast  Level FlightAware Approximate
08:14PM 17.1883 -71.6036 153° Southeast  Level FlightAware Approximate
08:15PM 17.0736 -71.5417 153° Southeast  Level FlightAware Approximate
08:16PM 16.9589 -71.4800 153° Southeast  Level FlightAware Approximate
08:17PM 16.8442 -71.4182 153° Southeast  Level FlightAware Approximate
08:18PM 16.7294 -71.3566 153° Southeast  Level FlightAware Approximate
08:19PM 16.6147 -71.2950 153° Southeast  Level FlightAware Approximate
08:20PM 16.4999 -71.2335 153° Southeast  Level FlightAware Approximate
08:21PM 16.3851 -71.1721 153° Southeast  Level FlightAware Approximate
08:22PM 16.2703 -71.1108 153° Southeast  Level FlightAware Approximate
08:23PM 16.1555 -71.0495 153° Southeast  Level FlightAware Approximate
08:24PM 16.0406 -70.9883 153° Southeast  Level FlightAware Approximate
08:25PM 15.9255 -70.9275 153° Southeast  Level FlightAware Approximate
08:26PM 15.8104 -70.8671 153° Southeast  Level FlightAware Approximate
08:27PM 15.6952 -70.8067 153° Southeast  Level FlightAware Approximate
08:28PM 15.5799 -70.7464 153° Southeast  Level FlightAware Approximate
08:29PM 15.4647 -70.6861 153° Southeast  Level FlightAware Approximate
08:30PM 15.3495 -70.6259 153° Southeast  Level FlightAware Approximate
08:31PM 15.2342 -70.5658 153° Southeast  Level FlightAware Approximate
08:32PM 15.1189 -70.5057 153° Southeast  Level FlightAware Approximate
08:33PM 15.0036 -70.4457 153° Southeast  Level FlightAware Approximate
08:34PM 14.8883 -70.3858 153° Southeast  Level FlightAware Approximate
08:35PM 14.7730 -70.3260 153° Southeast  Level FlightAware Approximate
08:36PM 14.6576 -70.2662 153° Southeast  Level FlightAware Approximate
08:37PM 14.5423 -70.2064 153° Southeast  Level FlightAware Approximate
08:38PM 14.4269 -70.1468 153° Southeast  Level FlightAware Approximate
08:39PM 14.3115 -70.0871 153° Southeast  Level FlightAware Approximate
08:40PM 14.1961 -70.0276 153° Southeast  Level FlightAware Approximate
08:41PM 14.0807 -69.9681 153° Southeast  Level FlightAware Approximate
08:42PM 13.9653 -69.9087 153° Southeast  Level FlightAware Approximate
08:43PM 13.8498 -69.8493 153° Southeast  Level FlightAware Approximate
08:44PM 13.7344 -69.7900 153° Southeast  Level FlightAware Approximate
08:45PM 13.6189 -69.7307 153° Southeast  Level FlightAware Approximate
08:46PM 13.5034 -69.6715 154° Southeast  Level FlightAware Approximate
08:47PM 13.3879 -69.6124 154° Southeast  Level FlightAware Approximate
08:48PM 13.2724 -69.5533 154° Southeast  Level FlightAware Approximate
08:49PM 13.1568 -69.4943 154° Southeast  Level FlightAware Approximate
08:50PM 13.0413 -69.4353 154° Southeast  Level FlightAware Approximate
08:51PM 12.9257 -69.3764 154° Southeast  Level FlightAware Approximate
08:52PM 12.8102 -69.3176 154° Southeast  Level FlightAware Approximate
08:53PM 12.6946 -69.2588 154° Southeast  Level FlightAware Approximate
08:54PM 12.5790 -69.2000 154° Southeast  Level FlightAware Approximate
08:55PM 12.4634 -69.1413 154° Southeast  Level FlightAware Approximate
08:56PM 12.3478 -69.0826 154° Southeast  Level FlightAware Approximate
08:57PM 12.2320 -69.0243 154° Southeast  Level FlightAware Approximate
08:58PM 12.1378 -68.9392 127° Southeast  Level FlightAware Approximate
08:59PM 12.0592 -68.8345 127° Southeast  Level FlightAware Approximate
09:00PM 11.9792 -68.7310 129° Southeast  Level FlightAware Approximate
09:01PM 11.8984 -68.6282 129° Southeast  Level FlightAware Approximate
09:02PM 11.8130 -68.5297 136° Southeast  Level FlightAware Approximate
09:03PM 11.7421 -68.4210 131° Southeast  Level FlightAware Approximate
09:04PM 11.6578 -68.3213 131° Southeast  Level FlightAware Approximate
09:05PM 11.5739 -68.2211 128° Southeast  Level FlightAware Approximate
09:06PM 11.4943 -68.1175 128° Southeast  Level FlightAware Approximate
09:07PM 11.4146 -68.0140 129° Southeast  Level FlightAware Approximate
09:08PM 11.3336 -67.9116 129° Southeast  Level FlightAware Approximate
09:09PM 11.2525 -67.8092 129° Southeast  Level FlightAware Approximate
09:10PM 11.1715 -67.7068 129° Southeast  Level FlightAware Approximate
09:11PM 11.0898 -67.6050 132° Southeast  Level FlightAware Approximate
09:12PM 11.0040 -67.5069 132° Southeast  Level FlightAware Approximate
09:13PM 10.9250 -67.4031 127° Southeast  Level FlightAware Approximate
09:14PM 10.8481 -67.2975 127° Southeast  Level FlightAware Approximate
09:15PM 10.7698 -67.1931 127° Southeast  Level FlightAware Approximate
09:16PM 10.6915 -67.0887 127° Southeast  Level FlightAware Approximate
09:17PM 10.6133 -66.9843 127° Southeast  Level FlightAware Approximate
09:18PM 10.6031 -66.9906 127° Southeast  Level Estimated
09:19PM 10.6031 -66.9906 127° Southeast  Level Estimated
09:20PM 10.6031 -66.9906 127° Southeast  Level Estimated